sensor_id;sensor_type;location;lat;lon;timestamp;P1;durP1;ratioP1;P2;durP2;ratioP2
23573;SDS011;11965;53.640;10.050;2023-08-08T00:00:30;3.44;;;3.26;;
23573;SDS011;11965;53.640;10.050;2023-08-08T00:02:57;3.29;;;3.17;;
23573;SDS011;11965;53.640;10.050;2023-08-08T00:05:24;3.26;;;3.13;;
23573;SDS011;11965;53.640;10.050;2023-08-08T00:07:53;3.26;;;3.14;;
23573;SDS011;11965;53.640;10.050;2023-08-08T00:10:20;3.46;;;3.38;;
23573;SDS011;11965;53.640;10.050;2023-08-08T00:12:47;2.97;;;2.90;;
23573;SDS011;11965;53.640;10.050;2023-08-08T00:15:13;3.28;;;3.19;;
23573;SDS011;11965;53.640;10.050;2023-08-08T00:17:40;3.37;;;3.28;;
23573;SDS011;11965;53.640;10.050;2023-08-08T00:20:07;3.11;;;3.05;;
23573;SDS011;11965;53.640;10.050;2023-08-08T00:22:35;2.93;;;2.90;;
23573;SDS011;11965;53.640;10.050;2023-08-08T00:25:03;3.19;;;3.13;;
23573;SDS011;11965;53.640;10.050;2023-08-08T00:27:30;3.09;;;3.03;;
23573;SDS011;11965;53.640;10.050;2023-08-08T00:29:57;3.21;;;3.15;;
23573;SDS011;11965;53.640;10.050;2023-08-08T00:32:24;3.25;;;3.19;;
23573;SDS011;11965;53.640;10.050;2023-08-08T00:34:51;3.08;;;3.03;;
23573;SDS011;11965;53.640;10.050;2023-08-08T00:37:18;3.30;;;3.23;;
23573;SDS011;11965;53.640;10.050;2023-08-08T00:39:44;3.02;;;2.95;;
23573;SDS011;11965;53.640;10.050;2023-08-08T00:42:13;3.30;;;3.22;;
23573;SDS011;11965;53.640;10.050;2023-08-08T00:44:40;3.04;;;3.01;;
23573;SDS011;11965;53.640;10.050;2023-08-08T00:47:07;3.12;;;3.09;;
23573;SDS011;11965;53.640;10.050;2023-08-08T00:49:35;3.07;;;3.03;;
23573;SDS011;11965;53.640;10.050;2023-08-08T00:52:03;3.03;;;3.01;;
23573;SDS011;11965;53.640;10.050;2023-08-08T00:54:32;2.91;;;2.90;;
23573;SDS011;11965;53.640;10.050;2023-08-08T00:56:58;3.06;;;3.05;;
23573;SDS011;11965;53.640;10.050;2023-08-08T00:59:27;3.07;;;3.06;;
23573;SDS011;11965;53.640;10.050;2023-08-08T01:01:54;3.01;;;3.00;;
23573;SDS011;11965;53.640;10.050;2023-08-08T01:04:21;2.56;;;2.56;;
23573;SDS011;11965;53.640;10.050;2023-08-08T01:06:55;2.73;;;2.72;;
23573;SDS011;11965;53.640;10.050;2023-08-08T01:09:33;2.68;;;2.66;;
23573;SDS011;11965;53.640;10.050;2023-08-08T01:12:05;2.56;;;2.53;;
23573;SDS011;11965;53.640;10.050;2023-08-08T01:14:38;2.75;;;2.72;;
23573;SDS011;11965;53.640;10.050;2023-08-08T01:17:09;2.71;;;2.71;;
23573;SDS011;11965;53.640;10.050;2023-08-08T01:19:38;2.59;;;2.59;;
23573;SDS011;11965;53.640;10.050;2023-08-08T01:22:07;2.68;;;2.66;;
23573;SDS011;11965;53.640;10.050;2023-08-08T01:24:42;2.55;;;2.51;;
23573;SDS011;11965;53.640;10.050;2023-08-08T01:27:10;2.71;;;2.69;;
23573;SDS011;11965;53.640;10.050;2023-08-08T01:29:37;2.80;;;2.78;;
23573;SDS011;11965;53.640;10.050;2023-08-08T01:32:04;2.78;;;2.73;;
23573;SDS011;11965;53.640;10.050;2023-08-08T01:34:34;2.42;;;2.37;;
23573;SDS011;11965;53.640;10.050;2023-08-08T01:37:02;2.45;;;2.43;;
23573;SDS011;11965;53.640;10.050;2023-08-08T01:39:37;2.57;;;2.52;;
23573;SDS011;11965;53.640;10.050;2023-08-08T01:42:08;2.59;;;2.56;;
23573;SDS011;11965;53.640;10.050;2023-08-08T01:44:38;2.34;;;2.32;;
23573;SDS011;11965;53.640;10.050;2023-08-08T01:47:08;2.54;;;2.50;;
23573;SDS011;11965;53.640;10.050;2023-08-08T01:49:35;2.78;;;2.71;;
23573;SDS011;11965;53.640;10.050;2023-08-08T01:52:02;2.69;;;2.65;;
23573;SDS011;11965;53.640;10.050;2023-08-08T01:54:30;2.44;;;2.43;;
23573;SDS011;11965;53.640;10.050;2023-08-08T01:56:57;2.39;;;2.37;;
23573;SDS011;11965;53.640;10.050;2023-08-08T01:59:26;2.68;;;2.62;;
23573;SDS011;11965;53.640;10.050;2023-08-08T02:01:52;2.61;;;2.55;;
23573;SDS011;11965;53.640;10.050;2023-08-08T02:04:19;2.52;;;2.49;;
23573;SDS011;11965;53.640;10.050;2023-08-08T02:06:47;2.76;;;2.73;;
23573;SDS011;11965;53.640;10.050;2023-08-08T02:09:13;2.47;;;2.43;;
23573;SDS011;11965;53.640;10.050;2023-08-08T02:11:40;2.71;;;2.63;;
23573;SDS011;11965;53.640;10.050;2023-08-08T02:14:07;2.53;;;2.46;;
23573;SDS011;11965;53.640;10.050;2023-08-08T02:16:35;2.65;;;2.55;;
23573;SDS011;11965;53.640;10.050;2023-08-08T02:19:02;2.70;;;2.58;;
23573;SDS011;11965;53.640;10.050;2023-08-08T02:21:29;2.60;;;2.48;;
23573;SDS011;11965;53.640;10.050;2023-08-08T02:23:56;2.74;;;2.64;;
23573;SDS011;11965;53.640;10.050;2023-08-08T02:26:24;2.42;;;2.35;;
23573;SDS011;11965;53.640;10.050;2023-08-08T02:28:52;2.41;;;2.35;;
23573;SDS011;11965;53.640;10.050;2023-08-08T02:31:18;2.16;;;2.15;;
23573;SDS011;11965;53.640;10.050;2023-08-08T02:33:48;2.49;;;2.43;;
23573;SDS011;11965;53.640;10.050;2023-08-08T02:36:15;2.18;;;2.12;;
23573;SDS011;11965;53.640;10.050;2023-08-08T02:38:42;2.29;;;2.22;;
23573;SDS011;11965;53.640;10.050;2023-08-08T02:41:09;1.97;;;1.91;;
23573;SDS011;11965;53.640;10.050;2023-08-08T02:43:36;2.30;;;2.22;;
23573;SDS011;11965;53.640;10.050;2023-08-08T02:46:03;2.32;;;2.23;;
23573;SDS011;11965;53.640;10.050;2023-08-08T02:48:30;2.41;;;2.32;;
23573;SDS011;11965;53.640;10.050;2023-08-08T02:50:59;2.21;;;2.15;;
23573;SDS011;11965;53.640;10.050;2023-08-08T02:53:26;2.06;;;2.01;;
23573;SDS011;11965;53.640;10.050;2023-08-08T02:55:53;2.04;;;1.97;;
23573;SDS011;11965;53.640;10.050;2023-08-08T02:58:20;1.94;;;1.86;;
23573;SDS011;11965;53.640;10.050;2023-08-08T03:00:47;1.93;;;1.86;;
23573;SDS011;11965;53.640;10.050;2023-08-08T03:03:16;1.96;;;1.90;;
23573;SDS011;11965;53.640;10.050;2023-08-08T03:05:44;2.07;;;2.00;;
23573;SDS011;11965;53.640;10.050;2023-08-08T03:08:14;1.94;;;1.88;;
23573;SDS011;11965;53.640;10.050;2023-08-08T03:10:41;1.91;;;1.84;;
23573;SDS011;11965;53.640;10.050;2023-08-08T03:13:09;2.05;;;1.98;;
23573;SDS011;11965;53.640;10.050;2023-08-08T03:15:37;1.83;;;1.76;;
23573;SDS011;11965;53.640;10.050;2023-08-08T03:18:05;1.95;;;1.89;;
23573;SDS011;11965;53.640;10.050;2023-08-08T03:20:33;2.11;;;2.05;;
23573;SDS011;11965;53.640;10.050;2023-08-08T03:23:00;2.46;;;2.35;;
23573;SDS011;11965;53.640;10.050;2023-08-08T03:25:29;1.91;;;1.81;;
23573;SDS011;11965;53.640;10.050;2023-08-08T03:27:56;1.75;;;1.68;;
23573;SDS011;11965;53.640;10.050;2023-08-08T03:30:23;1.81;;;1.72;;
23573;SDS011;11965;53.640;10.050;2023-08-08T03:32:50;1.93;;;1.85;;
23573;SDS011;11965;53.640;10.050;2023-08-08T03:35:17;1.95;;;1.87;;
23573;SDS011;11965;53.640;10.050;2023-08-08T03:37:44;2.10;;;2.01;;
23573;SDS011;11965;53.640;10.050;2023-08-08T03:40:11;1.98;;;1.90;;
23573;SDS011;11965;53.640;10.050;2023-08-08T03:42:40;2.06;;;1.97;;
23573;SDS011;11965;53.640;10.050;2023-08-08T03:45:07;1.98;;;1.92;;
23573;SDS011;11965;53.640;10.050;2023-08-08T03:47:35;2.09;;;2.03;;
23573;SDS011;11965;53.640;10.050;2023-08-08T03:50:02;1.87;;;1.81;;
23573;SDS011;11965;53.640;10.050;2023-08-08T03:52:29;1.98;;;1.94;;
23573;SDS011;11965;53.640;10.050;2023-08-08T03:54:58;1.96;;;1.92;;
23573;SDS011;11965;53.640;10.050;2023-08-08T03:57:25;1.92;;;1.87;;
23573;SDS011;11965;53.640;10.050;2023-08-08T03:59:53;2.13;;;2.08;;
23573;SDS011;11965;53.640;10.050;2023-08-08T04:02:20;1.95;;;1.94;;
23573;SDS011;11965;53.640;10.050;2023-08-08T04:04:47;1.86;;;1.83;;
23573;SDS011;11965;53.640;10.050;2023-08-08T04:07:14;1.92;;;1.91;;
23573;SDS011;11965;53.640;10.050;2023-08-08T04:09:41;2.13;;;2.07;;
23573;SDS011;11965;53.640;10.050;2023-08-08T04:12:08;2.22;;;2.19;;
23573;SDS011;11965;53.640;10.050;2023-08-08T04:14:35;1.96;;;1.90;;
23573;SDS011;11965;53.640;10.050;2023-08-08T04:17:03;1.95;;;1.87;;
23573;SDS011;11965;53.640;10.050;2023-08-08T04:19:30;1.88;;;1.79;;
23573;SDS011;11965;53.640;10.050;2023-08-08T04:21:57;1.79;;;1.73;;
23573;SDS011;11965;53.640;10.050;2023-08-08T04:24:24;1.96;;;1.89;;
23573;SDS011;11965;53.640;10.050;2023-08-08T04:26:51;1.97;;;1.90;;
23573;SDS011;11965;53.640;10.050;2023-08-08T04:29:18;2.04;;;1.97;;
23573;SDS011;11965;53.640;10.050;2023-08-08T04:31:45;2.10;;;2.01;;
23573;SDS011;11965;53.640;10.050;2023-08-08T04:34:13;1.81;;;1.74;;
23573;SDS011;11965;53.640;10.050;2023-08-08T04:36:40;1.85;;;1.78;;
23573;SDS011;11965;53.640;10.050;2023-08-08T04:39:06;2.01;;;1.94;;
23573;SDS011;11965;53.640;10.050;2023-08-08T04:41:33;1.96;;;1.88;;
23573;SDS011;11965;53.640;10.050;2023-08-08T04:44:00;1.97;;;1.90;;
23573;SDS011;11965;53.640;10.050;2023-08-08T04:46:27;2.02;;;1.96;;
23573;SDS011;11965;53.640;10.050;2023-08-08T04:48:54;1.89;;;1.83;;
23573;SDS011;11965;53.640;10.050;2023-08-08T04:51:22;1.77;;;1.72;;
23573;SDS011;11965;53.640;10.050;2023-08-08T04:53:51;2.02;;;1.96;;
23573;SDS011;11965;53.640;10.050;2023-08-08T04:56:18;1.79;;;1.74;;
23573;SDS011;11965;53.640;10.050;2023-08-08T04:58:45;1.67;;;1.65;;
23573;SDS011;11965;53.640;10.050;2023-08-08T05:01:12;1.75;;;1.75;;
23573;SDS011;11965;53.640;10.050;2023-08-08T05:03:40;1.51;;;1.49;;
23573;SDS011;11965;53.640;10.050;2023-08-08T05:06:07;1.68;;;1.65;;
23573;SDS011;11965;53.640;10.050;2023-08-08T05:08:36;1.73;;;1.73;;
23573;SDS011;11965;53.640;10.050;2023-08-08T05:11:02;1.73;;;1.72;;
23573;SDS011;11965;53.640;10.050;2023-08-08T05:13:29;1.73;;;1.73;;
23573;SDS011;11965;53.640;10.050;2023-08-08T05:15:56;1.68;;;1.68;;
23573;SDS011;11965;53.640;10.050;2023-08-08T05:18:23;1.67;;;1.66;;
23573;SDS011;11965;53.640;10.050;2023-08-08T05:20:50;1.62;;;1.62;;
23573;SDS011;11965;53.640;10.050;2023-08-08T05:23:16;1.58;;;1.58;;
23573;SDS011;11965;53.640;10.050;2023-08-08T05:25:45;1.73;;;1.73;;
23573;SDS011;11965;53.640;10.050;2023-08-08T05:28:11;1.72;;;1.71;;
23573;SDS011;11965;53.640;10.050;2023-08-08T05:30:38;1.56;;;1.53;;
23573;SDS011;11965;53.640;10.050;2023-08-08T05:33:05;1.70;;;1.69;;
23573;SDS011;11965;53.640;10.050;2023-08-08T05:35:32;1.72;;;1.70;;
23573;SDS011;11965;53.640;10.050;2023-08-08T05:37:59;1.73;;;1.70;;
23573;SDS011;11965;53.640;10.050;2023-08-08T05:40:26;1.65;;;1.64;;
23573;SDS011;11965;53.640;10.050;2023-08-08T05:42:54;1.68;;;1.66;;
23573;SDS011;11965;53.640;10.050;2023-08-08T05:45:21;1.70;;;1.69;;
23573;SDS011;11965;53.640;10.050;2023-08-08T05:47:47;2.04;;;2.02;;
23573;SDS011;11965;53.640;10.050;2023-08-08T05:50:14;1.76;;;1.72;;
23573;SDS011;11965;53.640;10.050;2023-08-08T05:52:41;1.70;;;1.64;;
23573;SDS011;11965;53.640;10.050;2023-08-08T05:55:08;1.71;;;1.63;;
23573;SDS011;11965;53.640;10.050;2023-08-08T05:57:35;2.09;;;1.98;;
23573;SDS011;11965;53.640;10.050;2023-08-08T06:00:04;2.04;;;1.94;;
23573;SDS011;11965;53.640;10.050;2023-08-08T06:02:38;1.95;;;1.84;;
23573;SDS011;11965;53.640;10.050;2023-08-08T06:05:06;1.76;;;1.68;;
23573;SDS011;11965;53.640;10.050;2023-08-08T06:07:33;1.74;;;1.66;;
23573;SDS011;11965;53.640;10.050;2023-08-08T06:12:50;1.98;;;1.89;;
23573;SDS011;11965;53.640;10.050;2023-08-08T06:15:18;1.68;;;1.61;;
23573;SDS011;11965;53.640;10.050;2023-08-08T06:17:45;2.02;;;1.92;;
23573;SDS011;11965;53.640;10.050;2023-08-08T06:20:12;1.94;;;1.84;;
23573;SDS011;11965;53.640;10.050;2023-08-08T06:22:40;1.84;;;1.75;;
23573;SDS011;11965;53.640;10.050;2023-08-08T06:25:08;2.04;;;1.96;;
23573;SDS011;11965;53.640;10.050;2023-08-08T06:27:36;1.81;;;1.75;;
23573;SDS011;11965;53.640;10.050;2023-08-08T06:30:03;2.35;;;2.29;;
23573;SDS011;11965;53.640;10.050;2023-08-08T06:32:32;1.89;;;1.84;;
23573;SDS011;11965;53.640;10.050;2023-08-08T06:34:59;1.82;;;1.79;;
23573;SDS011;11965;53.640;10.050;2023-08-08T06:37:26;1.98;;;1.95;;
23573;SDS011;11965;53.640;10.050;2023-08-08T06:39:53;2.10;;;2.05;;
23573;SDS011;11965;53.640;10.050;2023-08-08T06:42:20;1.93;;;1.87;;
23573;SDS011;11965;53.640;10.050;2023-08-08T06:44:54;2.18;;;2.11;;
23573;SDS011;11965;53.640;10.050;2023-08-08T06:47:20;2.34;;;2.27;;
23573;SDS011;11965;53.640;10.050;2023-08-08T06:49:48;2.33;;;2.30;;
23573;SDS011;11965;53.640;10.050;2023-08-08T06:52:15;2.04;;;2.01;;
23573;SDS011;11965;53.640;10.050;2023-08-08T06:54:42;2.15;;;2.08;;
23573;SDS011;11965;53.640;10.050;2023-08-08T06:57:09;2.17;;;2.08;;
23573;SDS011;11965;53.640;10.050;2023-08-08T06:59:36;1.95;;;1.89;;
23573;SDS011;11965;53.640;10.050;2023-08-08T07:02:03;2.08;;;2.02;;
23573;SDS011;11965;53.640;10.050;2023-08-08T07:04:31;1.92;;;1.86;;
23573;SDS011;11965;53.640;10.050;2023-08-08T07:06:59;2.05;;;1.99;;
23573;SDS011;11965;53.640;10.050;2023-08-08T07:09:26;2.06;;;1.99;;
23573;SDS011;11965;53.640;10.050;2023-08-08T07:11:52;2.02;;;1.93;;
23573;SDS011;11965;53.640;10.050;2023-08-08T07:14:19;1.95;;;1.87;;
23573;SDS011;11965;53.640;10.050;2023-08-08T07:16:46;1.84;;;1.78;;
23573;SDS011;11965;53.640;10.050;2023-08-08T07:19:14;1.93;;;1.87;;
23573;SDS011;11965;53.640;10.050;2023-08-08T07:21:41;1.97;;;1.91;;
23573;SDS011;11965;53.640;10.050;2023-08-08T07:24:09;2.21;;;2.14;;
23573;SDS011;11965;53.640;10.050;2023-08-08T07:26:36;1.97;;;1.90;;
23573;SDS011;11965;53.640;10.050;2023-08-08T07:29:03;1.99;;;1.92;;
23573;SDS011;11965;53.640;10.050;2023-08-08T07:31:31;1.95;;;1.88;;
23573;SDS011;11965;53.640;10.050;2023-08-08T07:33:58;1.83;;;1.78;;
23573;SDS011;11965;53.640;10.050;2023-08-08T07:36:25;2.09;;;2.02;;
23573;SDS011;11965;53.640;10.050;2023-08-08T07:38:52;1.73;;;1.66;;
23573;SDS011;11965;53.640;10.050;2023-08-08T07:41:23;1.57;;;1.51;;
23573;SDS011;11965;53.640;10.050;2023-08-08T07:43:51;1.64;;;1.59;;
23573;SDS011;11965;53.640;10.050;2023-08-08T07:46:18;1.84;;;1.78;;
23573;SDS011;11965;53.640;10.050;2023-08-08T07:48:45;1.83;;;1.77;;
23573;SDS011;11965;53.640;10.050;2023-08-08T07:51:12;1.71;;;1.65;;
23573;SDS011;11965;53.640;10.050;2023-08-08T07:53:38;1.83;;;1.77;;
23573;SDS011;11965;53.640;10.050;2023-08-08T07:56:05;1.70;;;1.66;;
23573;SDS011;11965;53.640;10.050;2023-08-08T07:58:33;1.66;;;1.66;;
23573;SDS011;11965;53.640;10.050;2023-08-08T08:01:00;1.72;;;1.72;;
23573;SDS011;11965;53.640;10.050;2023-08-08T08:03:27;1.73;;;1.70;;
23573;SDS011;11965;53.640;10.050;2023-08-08T08:05:54;1.79;;;1.71;;
23573;SDS011;11965;53.640;10.050;2023-08-08T08:08:20;2.17;;;2.07;;
23573;SDS011;11965;53.640;10.050;2023-08-08T08:10:47;2.13;;;2.03;;
23573;SDS011;11965;53.640;10.050;2023-08-08T08:13:16;1.92;;;1.82;;
23573;SDS011;11965;53.640;10.050;2023-08-08T08:15:44;2.38;;;2.27;;
23573;SDS011;11965;53.640;10.050;2023-08-08T08:18:11;2.13;;;2.01;;
23573;SDS011;11965;53.640;10.050;2023-08-08T08:20:39;2.33;;;2.19;;
23573;SDS011;11965;53.640;10.050;2023-08-08T08:23:06;2.10;;;2.01;;
23573;SDS011;11965;53.640;10.050;2023-08-08T08:25:33;2.18;;;2.07;;
23573;SDS011;11965;53.640;10.050;2023-08-08T08:27:59;2.46;;;2.33;;
23573;SDS011;11965;53.640;10.050;2023-08-08T08:30:26;2.33;;;2.20;;
23573;SDS011;11965;53.640;10.050;2023-08-08T08:32:54;2.24;;;2.12;;
23573;SDS011;11965;53.640;10.050;2023-08-08T08:35:22;2.28;;;2.15;;
23573;SDS011;11965;53.640;10.050;2023-08-08T08:37:50;2.43;;;2.30;;
23573;SDS011;11965;53.640;10.050;2023-08-08T08:40:17;2.07;;;1.96;;
23573;SDS011;11965;53.640;10.050;2023-08-08T08:42:44;1.86;;;1.76;;
23573;SDS011;11965;53.640;10.050;2023-08-08T08:45:13;1.90;;;1.82;;
23573;SDS011;11965;53.640;10.050;2023-08-08T08:47:43;1.63;;;1.59;;
23573;SDS011;11965;53.640;10.050;2023-08-08T08:50:14;1.66;;;1.61;;
23573;SDS011;11965;53.640;10.050;2023-08-08T08:52:42;1.55;;;1.51;;
23573;SDS011;11965;53.640;10.050;2023-08-08T08:55:10;1.64;;;1.63;;
23573;SDS011;11965;53.640;10.050;2023-08-08T08:57:37;1.78;;;1.77;;
23573;SDS011;11965;53.640;10.050;2023-08-08T09:00:05;1.75;;;1.72;;
23573;SDS011;11965;53.640;10.050;2023-08-08T09:02:33;1.75;;;1.72;;
23573;SDS011;11965;53.640;10.050;2023-08-08T09:05:00;1.64;;;1.60;;
23573;SDS011;11965;53.640;10.050;2023-08-08T09:07:32;1.89;;;1.84;;
23573;SDS011;11965;53.640;10.050;2023-08-08T09:09:59;1.51;;;1.48;;
23573;SDS011;11965;53.640;10.050;2023-08-08T09:12:27;1.55;;;1.53;;
23573;SDS011;11965;53.640;10.050;2023-08-08T09:14:54;1.61;;;1.55;;
23573;SDS011;11965;53.640;10.050;2023-08-08T09:17:24;1.31;;;1.27;;
23573;SDS011;11965;53.640;10.050;2023-08-08T09:19:52;1.42;;;1.38;;
23573;SDS011;11965;53.640;10.050;2023-08-08T09:22:20;1.53;;;1.49;;
23573;SDS011;11965;53.640;10.050;2023-08-08T09:24:50;1.62;;;1.58;;
23573;SDS011;11965;53.640;10.050;2023-08-08T09:27:17;1.38;;;1.35;;
23573;SDS011;11965;53.640;10.050;2023-08-08T09:29:44;1.31;;;1.28;;
23573;SDS011;11965;53.640;10.050;2023-08-08T09:32:11;1.40;;;1.38;;
23573;SDS011;11965;53.640;10.050;2023-08-08T09:34:40;1.42;;;1.40;;
23573;SDS011;11965;53.640;10.050;2023-08-08T09:37:07;1.30;;;1.26;;
23573;SDS011;11965;53.640;10.050;2023-08-08T09:39:35;1.63;;;1.57;;
23573;SDS011;11965;53.640;10.050;2023-08-08T09:42:04;1.60;;;1.52;;
23573;SDS011;11965;53.640;10.050;2023-08-08T09:44:32;1.41;;;1.33;;
23573;SDS011;11965;53.640;10.050;2023-08-08T09:47:00;1.55;;;1.45;;
23573;SDS011;11965;53.640;10.050;2023-08-08T09:49:28;1.66;;;1.52;;
23573;SDS011;11965;53.640;10.050;2023-08-08T09:51:57;1.54;;;1.39;;
23573;SDS011;11965;53.640;10.050;2023-08-08T09:54:25;1.84;;;1.67;;
23573;SDS011;11965;53.640;10.050;2023-08-08T09:56:53;1.59;;;1.47;;
23573;SDS011;11965;53.640;10.050;2023-08-08T09:59:23;1.72;;;1.60;;
23573;SDS011;11965;53.640;10.050;2023-08-08T10:01:51;1.29;;;1.19;;
23573;SDS011;11965;53.640;10.050;2023-08-08T10:04:19;1.54;;;1.43;;
23573;SDS011;11965;53.640;10.050;2023-08-08T10:06:46;1.24;;;1.15;;
23573;SDS011;11965;53.640;10.050;2023-08-08T10:09:13;1.16;;;1.08;;
23573;SDS011;11965;53.640;10.050;2023-08-08T10:11:40;1.20;;;1.13;;
23573;SDS011;11965;53.640;10.050;2023-08-08T10:14:10;1.21;;;1.16;;
23573;SDS011;11965;53.640;10.050;2023-08-08T10:16:39;1.17;;;1.13;;
23573;SDS011;11965;53.640;10.050;2023-08-08T10:19:09;1.16;;;1.12;;
23573;SDS011;11965;53.640;10.050;2023-08-08T10:21:37;1.30;;;1.25;;
23573;SDS011;11965;53.640;10.050;2023-08-08T10:24:08;1.33;;;1.29;;
23573;SDS011;11965;53.640;10.050;2023-08-08T10:26:50;1.42;;;1.38;;
23573;SDS011;11965;53.640;10.050;2023-08-08T10:29:18;1.84;;;1.77;;
23573;SDS011;11965;53.640;10.050;2023-08-08T10:31:52;1.73;;;1.66;;
23573;SDS011;11965;53.640;10.050;2023-08-08T10:34:19;1.69;;;1.62;;
23573;SDS011;11965;53.640;10.050;2023-08-08T10:36:50;1.71;;;1.64;;
23573;SDS011;11965;53.640;10.050;2023-08-08T10:39:19;2.01;;;1.92;;
23573;SDS011;11965;53.640;10.050;2023-08-08T10:41:47;1.89;;;1.81;;
23573;SDS011;11965;53.640;10.050;2023-08-08T10:44:23;1.77;;;1.68;;
23573;SDS011;11965;53.640;10.050;2023-08-08T10:46:52;1.88;;;1.80;;
23573;SDS011;11965;53.640;10.050;2023-08-08T10:49:20;1.72;;;1.65;;
23573;SDS011;11965;53.640;10.050;2023-08-08T10:51:49;1.65;;;1.59;;
23573;SDS011;11965;53.640;10.050;2023-08-08T10:54:18;1.54;;;1.49;;
23573;SDS011;11965;53.640;10.050;2023-08-08T10:56:48;1.57;;;1.51;;
23573;SDS011;11965;53.640;10.050;2023-08-08T10:59:17;1.86;;;1.77;;
23573;SDS011;11965;53.640;10.050;2023-08-08T11:01:46;1.63;;;1.52;;
23573;SDS011;11965;53.640;10.050;2023-08-08T11:04:16;1.66;;;1.53;;
23573;SDS011;11965;53.640;10.050;2023-08-08T11:06:45;1.78;;;1.65;;
23573;SDS011;11965;53.640;10.050;2023-08-08T11:09:15;1.67;;;1.54;;
23573;SDS011;11965;53.640;10.050;2023-08-08T11:11:42;1.63;;;1.50;;
23573;SDS011;11965;53.640;10.050;2023-08-08T11:14:11;1.77;;;1.67;;
23573;SDS011;11965;53.640;10.050;2023-08-08T11:16:40;1.48;;;1.41;;
23573;SDS011;11965;53.640;10.050;2023-08-08T11:19:08;1.62;;;1.55;;
23573;SDS011;11965;53.640;10.050;2023-08-08T11:21:39;1.32;;;1.26;;
23573;SDS011;11965;53.640;10.050;2023-08-08T11:24:07;1.39;;;1.32;;
23573;SDS011;11965;53.640;10.050;2023-08-08T11:26:35;1.32;;;1.27;;
23573;SDS011;11965;53.640;10.050;2023-08-08T11:29:04;1.62;;;1.55;;
23573;SDS011;11965;53.640;10.050;2023-08-08T11:31:33;1.23;;;1.17;;
23573;SDS011;11965;53.640;10.050;2023-08-08T11:34:01;1.44;;;1.38;;
23573;SDS011;11965;53.640;10.050;2023-08-08T11:36:29;1.62;;;1.55;;
23573;SDS011;11965;53.640;10.050;2023-08-08T11:38:59;1.55;;;1.46;;
23573;SDS011;11965;53.640;10.050;2023-08-08T11:41:33;1.71;;;1.59;;
23573;SDS011;11965;53.640;10.050;2023-08-08T11:44:01;1.70;;;1.56;;
23573;SDS011;11965;53.640;10.050;2023-08-08T11:46:29;1.73;;;1.58;;
23573;SDS011;11965;53.640;10.050;2023-08-08T11:49:01;1.68;;;1.53;;
23573;SDS011;11965;53.640;10.050;2023-08-08T11:51:31;1.58;;;1.42;;
23573;SDS011;11965;53.640;10.050;2023-08-08T11:54:01;2.15;;;1.89;;
23573;SDS011;11965;53.640;10.050;2023-08-08T11:56:32;1.68;;;1.46;;
23573;SDS011;11965;53.640;10.050;2023-08-08T11:59:00;1.70;;;1.46;;
23573;SDS011;11965;53.640;10.050;2023-08-08T12:01:27;1.66;;;1.43;;
23573;SDS011;11965;53.640;10.050;2023-08-08T12:03:54;1.94;;;1.66;;
23573;SDS011;11965;53.640;10.050;2023-08-08T12:06:21;1.94;;;1.64;;
23573;SDS011;11965;53.640;10.050;2023-08-08T12:08:48;1.84;;;1.57;;
23573;SDS011;11965;53.640;10.050;2023-08-08T12:11:16;2.00;;;1.72;;
23573;SDS011;11965;53.640;10.050;2023-08-08T12:13:44;2.01;;;1.73;;
23573;SDS011;11965;53.640;10.050;2023-08-08T12:16:11;2.07;;;1.80;;
23573;SDS011;11965;53.640;10.050;2023-08-08T12:18:40;1.80;;;1.56;;
23573;SDS011;11965;53.640;10.050;2023-08-08T12:21:08;1.97;;;1.70;;
23573;SDS011;11965;53.640;10.050;2023-08-08T12:23:35;2.03;;;1.74;;
23573;SDS011;11965;53.640;10.050;2023-08-08T12:26:03;2.19;;;1.90;;
23573;SDS011;11965;53.640;10.050;2023-08-08T12:28:33;2.06;;;1.79;;
23573;SDS011;11965;53.640;10.050;2023-08-08T12:31:00;2.02;;;1.77;;
23573;SDS011;11965;53.640;10.050;2023-08-08T12:33:27;1.87;;;1.64;;
23573;SDS011;11965;53.640;10.050;2023-08-08T12:35:54;2.04;;;1.79;;
23573;SDS011;11965;53.640;10.050;2023-08-08T12:38:21;2.01;;;1.76;;
23573;SDS011;11965;53.640;10.050;2023-08-08T12:40:48;1.86;;;1.63;;
23573;SDS011;11965;53.640;10.050;2023-08-08T12:43:16;1.88;;;1.66;;
23573;SDS011;11965;53.640;10.050;2023-08-08T12:45:44;1.69;;;1.48;;
23573;SDS011;11965;53.640;10.050;2023-08-08T12:48:13;1.91;;;1.70;;
23573;SDS011;11965;53.640;10.050;2023-08-08T12:50:39;1.98;;;1.76;;
23573;SDS011;11965;53.640;10.050;2023-08-08T12:53:07;1.99;;;1.74;;
23573;SDS011;11965;53.640;10.050;2023-08-08T12:55:34;1.96;;;1.72;;
23573;SDS011;11965;53.640;10.050;2023-08-08T12:58:02;2.14;;;1.89;;
23573;SDS011;11965;53.640;10.050;2023-08-08T13:00:29;2.51;;;2.18;;
23573;SDS011;11965;53.640;10.050;2023-08-08T13:02:58;2.42;;;2.06;;
23573;SDS011;11965;53.640;10.050;2023-08-08T13:05:24;2.59;;;2.19;;
23573;SDS011;11965;53.640;10.050;2023-08-08T13:07:51;2.27;;;1.92;;
23573;SDS011;11965;53.640;10.050;2023-08-08T13:10:18;2.40;;;2.02;;
23573;SDS011;11965;53.640;10.050;2023-08-08T13:12:45;2.25;;;1.88;;
23573;SDS011;11965;53.640;10.050;2023-08-08T13:15:12;2.31;;;1.96;;
23573;SDS011;11965;53.640;10.050;2023-08-08T13:17:39;2.31;;;1.94;;
23573;SDS011;11965;53.640;10.050;2023-08-08T13:20:09;2.66;;;2.23;;
23573;SDS011;11965;53.640;10.050;2023-08-08T13:22:37;2.27;;;1.93;;
23573;SDS011;11965;53.640;10.050;2023-08-08T13:25:05;2.53;;;2.18;;
23573;SDS011;11965;53.640;10.050;2023-08-08T13:27:32;2.57;;;2.20;;
23573;SDS011;11965;53.640;10.050;2023-08-08T13:29:59;2.56;;;2.20;;
23573;SDS011;11965;53.640;10.050;2023-08-08T13:32:26;2.45;;;2.07;;
23573;SDS011;11965;53.640;10.050;2023-08-08T13:34:53;2.11;;;1.81;;
23573;SDS011;11965;53.640;10.050;2023-08-08T13:37:21;2.46;;;2.13;;
23573;SDS011;11965;53.640;10.050;2023-08-08T13:39:48;2.76;;;2.37;;
23573;SDS011;11965;53.640;10.050;2023-08-08T13:42:15;2.40;;;2.02;;
23573;SDS011;11965;53.640;10.050;2023-08-08T13:44:42;2.69;;;2.24;;
23573;SDS011;11965;53.640;10.050;2023-08-08T13:47:09;3.05;;;2.54;;
23573;SDS011;11965;53.640;10.050;2023-08-08T13:49:36;2.87;;;2.40;;
23573;SDS011;11965;53.640;10.050;2023-08-08T13:52:03;2.79;;;2.36;;
23573;SDS011;11965;53.640;10.050;2023-08-08T13:54:31;2.93;;;2.47;;
23573;SDS011;11965;53.640;10.050;2023-08-08T13:56:58;2.42;;;2.01;;
23573;SDS011;11965;53.640;10.050;2023-08-08T13:59:25;2.19;;;1.81;;
23573;SDS011;11965;53.640;10.050;2023-08-08T14:01:52;2.35;;;1.93;;
23573;SDS011;11965;53.640;10.050;2023-08-08T14:11:56;2.61;;;2.12;;
23573;SDS011;11965;53.640;10.050;2023-08-08T14:14:24;2.44;;;1.95;;
23573;SDS011;11965;53.640;10.050;2023-08-08T14:16:51;2.77;;;2.23;;
23573;SDS011;11965;53.640;10.050;2023-08-08T14:19:18;2.19;;;1.79;;
23573;SDS011;11965;53.640;10.050;2023-08-08T14:21:44;2.43;;;1.92;;
23573;SDS011;11965;53.640;10.050;2023-08-08T14:24:11;2.20;;;1.74;;
23573;SDS011;11965;53.640;10.050;2023-08-08T14:26:38;2.92;;;2.32;;
23573;SDS011;11965;53.640;10.050;2023-08-08T14:32:54;2.29;;;1.86;;
23573;SDS011;11965;53.640;10.050;2023-08-08T14:35:21;2.38;;;1.92;;
23573;SDS011;11965;53.640;10.050;2023-08-08T14:37:48;2.52;;;2.01;;
23573;SDS011;11965;53.640;10.050;2023-08-08T14:40:15;2.62;;;2.06;;
23573;SDS011;11965;53.640;10.050;2023-08-08T14:42:41;2.35;;;1.86;;
23573;SDS011;11965;53.640;10.050;2023-08-08T14:45:09;2.64;;;2.07;;
23573;SDS011;11965;53.640;10.050;2023-08-08T14:47:36;2.40;;;1.90;;
23573;SDS011;11965;53.640;10.050;2023-08-08T14:50:05;2.73;;;2.13;;